createdAt,value
2023-03-01T00:00:13.966Z,-5.58
2023-03-01T00:00:44.849Z,-5.58
2023-03-01T00:01:17.689Z,-5.58
2023-03-01T00:01:48.855Z,-5.58
2023-03-01T00:02:21.707Z,-5.58
2023-03-01T00:02:52.595Z,-5.58
2023-03-01T00:03:25.671Z,-5.58
2023-03-01T00:03:56.641Z,-5.58
2023-03-01T00:04:29.582Z,-5.58
2023-03-01T00:05:00.652Z,-5.58
2023-03-01T00:05:33.417Z,-5.69
2023-03-01T00:06:04.545Z,-5.69
2023-03-01T00:06:37.474Z,-5.69
2023-03-01T00:07:08.402Z,-5.69
2023-03-01T00:07:41.368Z,-5.69
2023-03-01T00:08:12.485Z,-5.69
2023-03-01T00:08:45.373Z,-5.69
2023-03-01T00:09:16.360Z,-5.69
2023-03-01T00:09:49.310Z,-5.81
2023-03-01T00:10:20.514Z,-5.81
2023-03-01T00:10:53.315Z,-5.81
2023-03-01T00:11:24.324Z,-5.81
2023-03-01T00:11:57.162Z,-5.81
2023-03-01T00:12:28.298Z,-5.81
2023-03-01T00:13:01.212Z,-5.81
2023-03-01T00:13:32.288Z,-5.77
2023-03-01T00:14:05.091Z,-5.77
2023-03-01T00:14:36.217Z,-5.77
2023-03-01T00:15:09.279Z,-5.77
2023-03-01T00:15:40.077Z,-5.77
2023-03-01T00:16:13.091Z,-5.77
2023-03-01T00:16:44.235Z,-5.77
2023-03-01T00:17:17.053Z,-5.77
2023-03-01T00:17:47.975Z,-5.77
2023-03-01T00:18:20.993Z,-5.77
2023-03-01T00:18:52.014Z,-5.77
2023-03-01T00:19:24.952Z,-5.77
2023-03-01T00:19:55.848Z,-5.77
2023-03-01T00:20:28.798Z,-5.66
2023-03-01T00:20:59.940Z,-5.66
2023-03-01T00:21:32.768Z,-5.66
2023-03-01T00:22:03.804Z,-5.54
2023-03-01T00:22:36.695Z,-5.54
2023-03-01T00:23:07.868Z,-5.54
2023-03-01T00:23:40.925Z,-5.54
2023-03-01T00:24:11.715Z,-5.54
2023-03-01T00:24:44.649Z,-5.54
2023-03-01T00:25:15.722Z,-5.54
2023-03-01T00:25:48.697Z,-5.54
2023-03-01T00:26:19.652Z,-5.54
2023-03-01T00:26:52.518Z,-5.54
2023-03-01T00:27:23.648Z,-5.54
2023-03-01T00:27:56.557Z,-5.54
2023-03-01T00:28:27.468Z,-5.54
2023-03-01T00:29:00.480Z,-5.54
2023-03-01T00:29:31.540Z,-5.54
2023-03-01T00:30:04.567Z,-5.54
2023-03-01T00:30:35.426Z,-5.54
2023-03-01T00:31:08.454Z,-5.54
2023-03-01T00:31:39.465Z,-5.54
2023-03-01T00:32:12.417Z,-5.54
2023-03-01T00:32:43.468Z,-5.54
2023-03-01T00:33:16.247Z,-5.44
2023-03-01T00:33:47.399Z,-5.44
2023-03-01T00:34:20.382Z,-5.44
2023-03-01T00:34:51.227Z,-5.44
2023-03-01T00:35:24.230Z,-5.44
2023-03-01T00:35:55.317Z,-5.44
2023-03-01T00:36:28.896Z,-5.58
2023-03-01T00:36:59.175Z,-5.44
2023-03-01T00:37:32.083Z,-5.44
2023-03-01T00:38:03.249Z,-5.44
2023-03-01T00:38:36.174Z,-5.44
2023-03-01T00:39:07.147Z,-5.44
2023-03-01T00:39:40.092Z,-5.44
2023-03-01T00:40:11.234Z,-5.58
2023-03-01T00:40:44.321Z,-5.53
2023-03-01T00:41:15.172Z,-5.53
2023-03-01T00:41:48.207Z,-5.53
2023-03-01T00:42:19.167Z,-5.53
2023-03-01T00:42:52.178Z,-5.53
2023-03-01T00:43:22.974Z,-5.53
2023-03-01T00:43:55.855Z,-5.43
2023-03-01T00:44:26.931Z,-5.43
2023-03-01T00:44:59.901Z,-5.32
2023-03-01T00:45:31.140Z,-5.20
2023-03-01T00:46:03.751Z,-5.20
2023-03-01T00:46:35.383Z,-5.35
2023-03-01T00:47:07.763Z,-5.35
2023-03-01T00:47:39.671Z,-5.35
2023-03-01T00:48:11.649Z,-5.35
2023-03-01T00:48:42.739Z,-5.35
2023-03-01T00:49:15.676Z,-5.20
2023-03-01T00:49:46.626Z,-5.20
2023-03-01T00:50:19.597Z,-5.20
2023-03-01T00:50:50.763Z,-5.20
2023-03-01T00:51:23.692Z,-5.32
2023-03-01T00:51:54.527Z,-5.32
2023-03-01T00:52:27.425Z,-5.32
2023-03-01T00:52:58.568Z,-5.32
2023-03-01T00:53:31.533Z,-5.32
2023-03-01T00:54:02.577Z,-5.20
2023-03-01T00:54:35.349Z,-5.20
2023-03-01T00:55:06.464Z,-5.20
2023-03-01T00:55:39.589Z,-5.20
2023-03-01T00:56:10.497Z,-5.20
2023-03-01T00:56:43.267Z,-5.20
2023-03-01T00:57:14.404Z,-5.20
2023-03-01T00:57:47.352Z,-5.32
2023-03-01T00:58:18.286Z,-5.32
2023-03-01T00:58:51.276Z,-5.32
2023-03-01T00:59:22.337Z,-5.32
2023-03-01T00:59:55.241Z,-5.32
2023-03-01T01:00:26.313Z,-5.32
2023-03-01T01:00:59.120Z,-5.32
2023-03-01T01:01:30.253Z,-5.32
2023-03-01T01:02:03.135Z,-5.32
2023-03-01T01:02:34.124Z,-5.32
2023-03-01T01:03:07.080Z,-5.32
2023-03-01T01:03:38.119Z,-5.32
2023-03-01T01:04:11.086Z,-5.32
2023-03-01T01:04:42.068Z,-5.32
2023-03-01T01:05:14.897Z,-5.32
2023-03-01T01:05:46.059Z,-5.32
2023-03-01T01:06:19.180Z,-5.32
2023-03-01T01:06:49.883Z,-5.32
2023-03-01T01:07:23.031Z,-5.43
2023-03-01T01:07:53.937Z,-5.43
2023-03-01T01:08:26.854Z,-5.43
2023-03-01T01:08:57.769Z,-5.43
2023-03-01T01:09:30.805Z,-5.43
2023-03-01T01:10:01.883Z,-5.43
2023-03-01T01:10:34.766Z,-5.43
2023-03-01T01:11:05.706Z,-5.43
2023-03-01T01:11:38.636Z,-5.43
2023-03-01T01:12:09.757Z,-5.43
2023-03-01T01:12:42.681Z,-5.43
2023-03-01T01:13:13.635Z,-5.53
2023-03-01T01:13:46.592Z,-5.53
2023-03-01T01:14:17.714Z,-5.53
2023-03-01T01:14:50.676Z,-5.53
2023-03-01T01:15:21.876Z,-5.53
2023-03-01T01:15:54.491Z,-5.53
2023-03-01T01:16:25.611Z,-5.53
2023-03-01T01:16:58.528Z,-5.53
2023-03-01T01:17:29.468Z,-5.53
2023-03-01T01:18:02.492Z,-5.53
2023-03-01T01:18:33.521Z,-5.53
2023-03-01T01:19:06.685Z,-5.53
2023-03-01T01:19:37.374Z,-5.53
2023-03-01T01:20:10.440Z,-5.53
2023-03-01T01:20:41.430Z,-5.53
2023-03-01T01:21:14.530Z,-5.53
2023-03-01T01:21:45.296Z,-5.53
2023-03-01T01:22:18.339Z,-5.53
2023-03-01T01:22:49.469Z,-5.53
2023-03-01T01:23:22.447Z,-5.53
2023-03-01T01:23:53.178Z,-5.53
2023-03-01T01:24:26.220Z,-5.53
2023-03-01T01:24:57.705Z,-5.53
2023-03-01T01:25:30.461Z,-5.58
2023-03-01T01:26:01.186Z,-5.58
2023-03-01T01:26:34.377Z,-5.58
2023-03-01T01:27:05.215Z,-5.58
2023-03-01T01:27:38.067Z,-5.58
2023-03-01T01:28:09.040Z,-5.58
2023-03-01T01:28:42.088Z,-5.69
2023-03-01T01:29:13.120Z,-5.54
2023-03-01T01:29:46.096Z,-5.54
2023-03-01T01:30:17.245Z,-5.54
2023-03-01T01:30:50.950Z,-5.54
2023-03-01T01:31:21.133Z,-5.54
2023-03-01T01:31:53.935Z,-5.54
2023-03-01T01:32:26.997Z,-5.66
2023-03-01T01:32:57.730Z,-5.66
2023-03-01T01:33:28.852Z,-5.66
2023-03-01T01:34:01.810Z,-5.66
2023-03-01T01:34:32.919Z,-5.66
2023-03-01T01:35:05.645Z,-5.66
2023-03-01T01:35:37.015Z,-5.77
2023-03-01T01:36:09.914Z,-5.77
2023-03-01T01:36:40.864Z,-5.77
2023-03-01T01:37:13.740Z,-5.88
2023-03-01T01:37:44.706Z,-5.88
2023-03-01T01:38:17.721Z,-5.88
2023-03-01T01:38:49.055Z,-5.88
2023-03-01T01:39:21.468Z,-5.88
2023-03-01T01:39:52.688Z,-5.93
2023-03-01T01:40:25.732Z,-5.78
2023-03-01T01:40:56.854Z,-5.78
2023-03-01T01:41:29.575Z,-5.78
2023-03-01T01:42:00.556Z,-5.78
2023-03-01T01:42:33.610Z,-5.78
2023-03-01T01:43:04.351Z,-5.78
2023-03-01T01:43:37.590Z,-5.78
2023-03-01T01:44:08.580Z,-5.89
2023-03-01T01:44:41.342Z,-5.89
2023-03-01T01:45:12.683Z,-5.89
2023-03-01T01:45:45.117Z,-6.01
2023-03-01T01:46:16.457Z,-6.01
2023-03-01T01:46:49.384Z,-6.01
2023-03-01T01:47:20.219Z,-6.01
2023-03-01T01:47:53.089Z,-6.01
2023-03-01T01:48:24.221Z,-6.01
2023-03-01T01:48:57.248Z,-6.01
2023-03-01T01:49:28.079Z,-5.87
2023-03-01T01:50:01.175Z,-5.87
2023-03-01T01:50:32.148Z,-5.75
2023-03-01T01:51:05.045Z,-5.75
2023-03-01T01:51:35.988Z,-5.75
2023-03-01T01:52:08.927Z,-5.75
2023-03-01T01:52:40.076Z,-5.75
2023-03-01T01:53:13.090Z,-5.75
2023-03-01T01:53:43.929Z,-5.75
2023-03-01T01:54:16.863Z,-5.75
2023-03-01T01:54:47.943Z,-5.75
2023-03-01T01:55:20.922Z,-5.75
2023-03-01T01:55:52.008Z,-5.75
2023-03-01T01:56:24.626Z,-5.75
2023-03-01T01:56:55.862Z,-5.75
2023-03-01T01:57:28.698Z,-5.75
2023-03-01T01:57:59.916Z,-5.75
2023-03-01T01:58:32.657Z,-5.75
2023-03-01T01:59:03.811Z,-5.75
2023-03-01T01:59:36.725Z,-5.75
2023-03-01T02:00:08.872Z,-5.87
2023-03-01T02:00:40.625Z,-5.87
2023-03-01T02:01:11.688Z,-5.87
2023-03-01T02:01:44.630Z,-5.87
2023-03-01T02:02:15.784Z,-5.87
2023-03-01T02:02:48.625Z,-5.87
2023-03-01T02:03:19.716Z,-5.87
2023-03-01T02:03:52.660Z,-5.87
2023-03-01T02:04:23.685Z,-5.87
2023-03-01T02:04:57.355Z,-5.87
2023-03-01T02:05:27.489Z,-5.87
2023-03-01T02:06:00.422Z,-5.87
2023-03-01T02:06:31.970Z,-5.87
2023-03-01T02:07:04.380Z,-5.87
2023-03-01T02:07:35.390Z,-5.87
2023-03-01T02:08:08.309Z,-5.87
2023-03-01T02:08:39.548Z,-5.87
2023-03-01T02:09:12.328Z,-5.87
2023-03-01T02:09:43.343Z,-5.87
2023-03-01T02:10:16.275Z,-5.87
2023-03-01T02:10:47.363Z,-5.87
2023-03-01T02:11:21.158Z,-5.87
2023-03-01T02:11:51.497Z,-5.87
2023-03-01T02:12:24.448Z,-5.87
2023-03-01T02:12:55.256Z,-5.87
2023-03-01T02:13:28.306Z,-5.87
2023-03-01T02:13:59.136Z,-5.87
2023-03-01T02:14:32.326Z,-5.87
2023-03-01T02:15:03.420Z,-5.87
2023-03-01T02:15:36.501Z,-5.87
2023-03-01T02:16:07.230Z,-5.87
2023-03-01T02:16:40.294Z,-5.87
2023-03-01T02:17:11.278Z,-5.87
2023-03-01T02:17:43.964Z,-5.87
2023-03-01T02:18:15.142Z,-5.87
2023-03-01T02:18:47.870Z,-5.98
2023-03-01T02:19:19.068Z,-5.98
2023-03-01T02:19:51.713Z,-5.98
2023-03-01T02:20:23.074Z,-6.09
2023-03-01T02:20:55.777Z,-6.09
2023-03-01T02:21:26.906Z,-6.09
2023-03-01T02:21:59.677Z,-6.09
2023-03-01T02:22:31.014Z,-6.09
2023-03-01T02:23:03.810Z,-6.14
2023-03-01T02:23:34.805Z,-6.14
2023-03-01T02:24:07.580Z,-6.14
2023-03-01T02:24:38.701Z,-6.14
2023-03-01T02:25:11.533Z,-6.14
2023-03-01T02:25:42.859Z,-6.14
2023-03-01T02:26:15.590Z,-6.14
2023-03-01T02:26:46.696Z,-6.14
2023-03-01T02:27:19.578Z,-6.24
2023-03-01T02:27:50.879Z,-6.24
2023-03-01T02:28:23.498Z,-6.10
2023-03-01T02:28:54.626Z,-6.10
2023-03-01T02:29:27.433Z,-6.10
2023-03-01T02:29:58.567Z,-6.10
2023-03-01T02:30:31.536Z,-6.10
2023-03-01T02:31:02.566Z,-6.10
2023-03-01T02:31:35.772Z,-6.10
2023-03-01T02:32:06.576Z,-6.10
2023-03-01T02:32:39.209Z,-6.10
2023-03-01T02:33:10.572Z,-6.10
2023-03-01T02:33:43.580Z,-6.22
2023-03-01T02:34:14.500Z,-6.22
2023-03-01T02:34:47.083Z,-6.22
2023-03-01T02:35:18.474Z,-6.22
2023-03-01T02:35:51.473Z,-6.22
2023-03-01T02:36:22.280Z,-6.22
2023-03-01T02:36:55.199Z,-6.22
2023-03-01T02:37:26.326Z,-6.22
2023-03-01T02:37:59.098Z,-6.22
2023-03-01T02:38:30.204Z,-6.22
2023-03-01T02:39:03.066Z,-6.22
2023-03-01T02:39:34.060Z,-6.22
2023-03-01T02:40:07.000Z,-6.22
2023-03-01T02:40:38.118Z,-6.22
2023-03-01T02:41:11.036Z,-6.22
2023-03-01T02:41:42.014Z,-6.22
2023-03-01T02:42:14.949Z,-6.32
2023-03-01T02:42:46.059Z,-6.32
2023-03-01T02:43:18.776Z,-6.32
2023-03-01T02:43:50.798Z,-6.32
2023-03-01T02:44:22.878Z,-6.32
2023-03-01T02:44:53.966Z,-6.43
2023-03-01T02:45:26.905Z,-6.43
2023-03-01T02:45:57.793Z,-6.43
2023-03-01T02:46:31.306Z,-6.43
2023-03-01T02:47:01.977Z,-6.43
2023-03-01T02:47:34.882Z,-6.43
2023-03-01T02:48:05.769Z,-6.43
2023-03-01T02:48:38.672Z,-6.29
2023-03-01T02:49:09.931Z,-6.29
2023-03-01T02:49:42.509Z,-6.29
2023-03-01T02:50:13.688Z,-6.29
2023-03-01T02:50:46.543Z,-6.29
2023-03-01T02:51:17.759Z,-6.29
2023-03-01T02:51:50.508Z,-6.29
2023-03-01T02:52:21.518Z,-6.29
2023-03-01T02:52:54.453Z,-6.29
2023-03-01T02:53:25.590Z,-6.29
2023-03-01T02:53:58.401Z,-6.29
2023-03-01T02:54:29.472Z,-6.29
2023-03-01T02:55:02.380Z,-6.29
2023-03-01T02:55:33.482Z,-6.29
2023-03-01T02:56:06.264Z,-6.29
2023-03-01T02:56:37.339Z,-6.34
2023-03-01T02:57:10.300Z,-6.34
2023-03-01T02:57:41.547Z,-6.34
2023-03-01T02:58:14.160Z,-6.34
2023-03-01T02:58:45.531Z,-6.34
2023-03-01T02:59:18.172Z,-6.34
2023-03-01T02:59:49.336Z,-6.34
2023-03-01T03:00:22.218Z,-6.34
2023-03-01T03:00:53.240Z,-6.34
2023-03-01T03:01:26.101Z,-6.34
2023-03-01T03:01:57.279Z,-6.34
2023-03-01T03:02:30.144Z,-6.34
2023-03-01T03:03:01.198Z,-6.34
2023-03-01T03:03:34.310Z,-6.34
2023-03-01T03:04:05.197Z,-6.34
2023-03-01T03:04:38.119Z,-6.34
2023-03-01T03:05:09.251Z,-6.34
2023-03-01T03:05:42.432Z,-6.34
2023-03-01T03:06:13.059Z,-6.34
2023-03-01T03:06:45.846Z,-6.34
2023-03-01T03:07:16.926Z,-6.45
2023-03-01T03:07:49.885Z,-6.45
2023-03-01T03:08:21.191Z,-6.45
2023-03-01T03:08:53.684Z,-6.34
2023-03-01T03:09:24.796Z,-6.34
2023-03-01T03:09:57.704Z,-6.45
2023-03-01T03:10:28.887Z,-6.45
2023-03-01T03:11:01.584Z,-6.45
2023-03-01T03:11:32.815Z,-6.45
2023-03-01T03:12:05.622Z,-6.45
2023-03-01T03:12:36.753Z,-6.45
2023-03-01T03:13:09.606Z,-6.45
2023-03-01T03:13:40.824Z,-6.45
2023-03-01T03:14:13.678Z,-6.45
2023-03-01T03:14:44.956Z,-6.45
2023-03-01T03:15:17.526Z,-6.45
2023-03-01T03:15:48.515Z,-6.45
2023-03-01T03:16:21.463Z,-6.45
2023-03-01T03:16:52.576Z,-6.45
2023-03-01T03:17:25.286Z,-6.45
2023-03-01T03:17:56.438Z,-6.56
2023-03-01T03:18:29.361Z,-6.56
2023-03-01T03:19:00.665Z,-6.56
2023-03-01T03:19:33.206Z,-6.56
2023-03-01T03:20:04.339Z,-6.56
2023-03-01T03:20:37.246Z,-6.56
2023-03-01T03:21:08.408Z,-6.56
2023-03-01T03:21:41.160Z,-6.56
2023-03-01T03:22:12.312Z,-6.56
2023-03-01T03:22:45.164Z,-6.56
2023-03-01T03:23:16.292Z,-6.56
2023-03-01T03:23:49.055Z,-6.43
2023-03-01T03:24:20.186Z,-6.43
2023-03-01T03:24:53.074Z,-6.43
2023-03-01T03:25:24.291Z,-6.43
2023-03-01T03:25:57.519Z,-6.43
2023-03-01T03:26:28.793Z,-6.43
2023-03-01T03:27:01.117Z,-6.43
2023-03-01T03:27:32.261Z,-6.54
2023-03-01T03:28:05.254Z,-6.54
2023-03-01T03:28:36.252Z,-6.54
2023-03-01T03:29:09.109Z,-6.54
2023-03-01T03:29:40.273Z,-6.54
2023-03-01T03:30:13.383Z,-6.54
2023-03-01T03:30:43.944Z,-6.54
2023-03-01T03:31:16.858Z,-6.54
2023-03-01T03:31:48.181Z,-6.54
2023-03-01T03:32:21.020Z,-6.54
2023-03-01T03:32:51.785Z,-6.54
2023-03-01T03:33:24.825Z,-6.54
2023-03-01T03:33:55.868Z,-6.54
2023-03-01T03:34:28.917Z,-6.54
2023-03-01T03:34:59.698Z,-6.54
2023-03-01T03:35:32.918Z,-6.54
2023-03-01T03:36:04.025Z,-6.54
2023-03-01T03:36:36.778Z,-6.54
2023-03-01T03:37:07.704Z,-6.54
2023-03-01T03:37:40.951Z,-6.54
2023-03-01T03:38:11.926Z,-6.54
2023-03-01T03:38:44.990Z,-6.54
2023-03-01T03:39:15.657Z,-6.54
2023-03-01T03:39:48.702Z,-6.54
2023-03-01T03:40:19.594Z,-6.54
2023-03-01T03:40:52.808Z,-6.54
2023-03-01T03:41:23.526Z,-6.54
2023-03-01T03:41:56.636Z,-6.54
2023-03-01T03:42:27.580Z,-6.54
2023-03-01T03:43:00.793Z,-6.54
2023-03-01T03:43:31.311Z,-6.54
2023-03-01T03:44:04.307Z,-6.54
2023-03-01T03:44:35.391Z,-6.54
2023-03-01T03:45:08.509Z,-6.54
2023-03-01T03:45:39.401Z,-6.54
2023-03-01T03:46:12.385Z,-6.54
2023-03-01T03:46:43.284Z,-6.54
2023-03-01T03:47:16.123Z,-6.54
2023-03-01T03:47:47.138Z,-6.54
2023-03-01T03:48:20.176Z,-6.54
2023-03-01T03:48:51.218Z,-6.54
2023-03-01T03:49:24.147Z,-6.54
2023-03-01T03:49:55.032Z,-6.54
2023-03-01T03:50:27.963Z,-6.54
2023-03-01T03:50:59.104Z,-6.54
2023-03-01T03:51:32.031Z,-6.54
2023-03-01T03:52:02.954Z,-6.65
2023-03-01T03:52:35.979Z,-6.65
2023-03-01T03:53:06.991Z,-6.65
2023-03-01T03:53:39.987Z,-6.65
2023-03-01T03:54:10.983Z,-6.65
2023-03-01T03:54:43.830Z,-6.65
2023-03-01T03:55:14.944Z,-6.65
2023-03-01T03:55:47.840Z,-6.65
2023-03-01T03:56:18.866Z,-6.65
2023-03-01T03:56:51.704Z,-6.65
2023-03-01T03:57:22.823Z,-6.65
2023-03-01T03:57:55.652Z,-6.65
2023-03-01T03:58:26.661Z,-6.65
2023-03-01T03:58:59.601Z,-6.65
2023-03-01T03:59:30.896Z,-6.65
2023-03-01T04:00:04.285Z,-6.65
2023-03-01T04:00:34.850Z,-6.65
2023-03-01T04:01:07.817Z,-6.65
2023-03-01T04:01:38.795Z,-6.65
2023-03-01T04:02:11.724Z,-6.65
2023-03-01T04:02:42.726Z,-6.65
2023-03-01T04:03:15.523Z,-6.65
2023-03-01T04:03:46.644Z,-6.65
2023-03-01T04:04:19.687Z,-6.65
2023-03-01T04:04:50.749Z,-6.65
2023-03-01T04:05:23.545Z,-6.65
2023-03-01T04:05:54.658Z,-6.65
2023-03-01T04:06:27.570Z,-6.65
2023-03-01T04:06:58.518Z,-6.70
2023-03-01T04:07:31.241Z,-6.70
2023-03-01T04:08:02.400Z,-6.70
2023-03-01T04:08:36.374Z,-6.70
2023-03-01T04:09:06.437Z,-6.70
2023-03-01T04:09:39.278Z,-6.70
2023-03-01T04:10:10.536Z,-6.70
2023-03-01T04:10:43.510Z,-6.70
2023-03-01T04:11:14.238Z,-6.70
2023-03-01T04:11:47.258Z,-6.70
2023-03-01T04:12:18.172Z,-6.70
2023-03-01T04:12:51.197Z,-6.70
2023-03-01T04:13:22.432Z,-6.70
2023-03-01T04:13:55.061Z,-6.81
2023-03-01T04:14:26.135Z,-6.81
2023-03-01T04:14:59.076Z,-6.81
2023-03-01T04:15:30.897Z,-6.81
2023-03-01T04:16:03.136Z,-6.81
2023-03-01T04:16:34.872Z,-6.81
2023-03-01T04:17:07.122Z,-6.81
2023-03-01T04:17:38.069Z,-6.81
2023-03-01T04:18:11.028Z,-6.81
2023-03-01T04:18:42.013Z,-6.81
2023-03-01T04:19:15.055Z,-6.67
2023-03-01T04:19:46.079Z,-6.67
2023-03-01T04:20:18.785Z,-6.81
2023-03-01T04:20:49.913Z,-6.81
2023-03-01T04:21:22.761Z,-6.81
2023-03-01T04:21:53.905Z,-6.81
2023-03-01T04:22:26.534Z,-6.67
2023-03-01T04:22:57.706Z,-6.81
2023-03-01T04:23:30.881Z,-6.81
2023-03-01T04:24:01.797Z,-6.67
2023-03-01T04:24:34.538Z,-6.67
2023-03-01T04:25:05.618Z,-6.67
2023-03-01T04:25:38.583Z,-6.67
2023-03-01T04:26:09.726Z,-6.67
2023-03-01T04:26:42.403Z,-6.67
2023-03-01T04:27:13.569Z,-6.67
2023-03-01T04:27:46.765Z,-6.81
2023-03-01T04:28:17.786Z,-6.81
2023-03-01T04:28:51.612Z,-6.81
2023-03-01T04:29:21.662Z,-6.81
2023-03-01T04:29:54.599Z,-6.81
2023-03-01T04:30:25.646Z,-6.67
2023-03-01T04:30:58.240Z,-6.67
2023-03-01T04:31:29.422Z,-6.67
2023-03-01T04:32:02.471Z,-6.81
2023-03-01T04:32:33.462Z,-6.81
2023-03-01T04:33:06.126Z,-6.81
2023-03-01T04:33:37.290Z,-6.81
2023-03-01T04:34:10.468Z,-6.81
2023-03-01T04:34:41.328Z,-6.81
2023-03-01T04:35:14.050Z,-6.81
2023-03-01T04:35:45.538Z,-6.67
2023-03-01T04:36:18.494Z,-6.81
2023-03-01T04:36:49.340Z,-6.67
2023-03-01T04:37:22.445Z,-6.67
2023-03-01T04:37:53.081Z,-6.67
2023-03-01T04:38:26.084Z,-6.67
2023-03-01T04:38:57.124Z,-6.67
2023-03-01T04:39:29.888Z,-6.67
2023-03-01T04:40:01.089Z,-6.67
2023-03-01T04:40:33.940Z,-6.67
2023-03-01T04:41:05.142Z,-6.67
2023-03-01T04:41:37.802Z,-6.67
2023-03-01T04:42:08.929Z,-6.67
2023-03-01T04:42:41.830Z,-6.67
2023-03-01T04:43:12.945Z,-6.67
2023-03-01T04:43:45.771Z,-6.67
2023-03-01T04:44:16.813Z,-6.67
2023-03-01T04:44:49.732Z,-6.67
2023-03-01T04:45:21.124Z,-6.67
2023-03-01T04:45:53.890Z,-6.67
2023-03-01T04:46:24.840Z,-6.79
2023-03-01T04:46:57.748Z,-6.79
2023-03-01T04:47:28.809Z,-6.79
2023-03-01T04:48:01.834Z,-6.79
2023-03-01T04:48:32.662Z,-6.79
2023-03-01T04:49:05.674Z,-6.79
2023-03-01T04:49:36.720Z,-6.79
2023-03-01T04:50:09.373Z,-6.79
2023-03-01T04:50:40.770Z,-6.79
2023-03-01T04:51:13.517Z,-6.79
2023-03-01T04:51:44.630Z,-6.79
2023-03-01T04:52:17.342Z,-6.79
2023-03-01T04:52:48.453Z,-6.79
2023-03-01T04:53:21.909Z,-6.79
2023-03-01T04:53:52.551Z,-6.79
2023-03-01T04:54:25.265Z,-6.79
2023-03-01T04:54:56.373Z,-6.79
2023-03-01T04:55:29.316Z,-6.79
2023-03-01T04:56:00.500Z,-6.79
2023-03-01T04:56:33.419Z,-6.79
2023-03-01T04:57:04.328Z,-6.79
2023-03-01T04:57:40.238Z,-6.79
2023-03-01T04:58:08.366Z,-6.79
2023-03-01T04:58:41.134Z,-6.79
2023-03-01T04:59:12.222Z,-6.79
2023-03-01T04:59:45.132Z,-6.79
2023-03-01T05:00:16.644Z,-6.79
2023-03-01T05:00:48.983Z,-6.79
2023-03-01T05:01:20.083Z,-6.79
2023-03-01T05:01:53.195Z,-6.90
2023-03-01T05:02:24.190Z,-6.90
2023-03-01T05:02:56.903Z,-6.90
2023-03-01T05:03:27.979Z,-6.90
2023-03-01T05:04:01.186Z,-6.90
2023-03-01T05:04:32.140Z,-6.90
2023-03-01T05:05:05.131Z,-6.90
2023-03-01T05:05:36.097Z,-6.90
2023-03-01T05:06:09.427Z,-6.90
2023-03-01T05:06:40.047Z,-6.90
2023-03-01T05:07:12.619Z,-7.01
2023-03-01T05:07:43.929Z,-7.01
2023-03-01T05:08:17.039Z,-7.01
2023-03-01T05:08:47.978Z,-7.01
2023-03-01T05:09:20.910Z,-7.01
2023-03-01T05:09:53.606Z,-7.01
2023-03-01T05:10:24.882Z,-7.01
2023-03-01T05:10:55.778Z,-7.01
2023-03-01T05:11:28.519Z,-7.01
2023-03-01T05:11:59.661Z,-7.01
2023-03-01T05:12:32.614Z,-7.01
2023-03-01T05:13:03.710Z,-7.01
2023-03-01T05:13:36.454Z,-7.01
2023-03-01T05:14:07.718Z,-7.06
2023-03-01T05:14:40.551Z,-7.06
2023-03-01T05:15:11.766Z,-7.06
2023-03-01T05:15:44.344Z,-7.06
2023-03-01T05:16:15.556Z,-7.06
2023-03-01T05:16:48.405Z,-7.06
2023-03-01T05:17:19.541Z,-7.06
2023-03-01T05:17:52.241Z,-7.06
2023-03-01T05:18:23.422Z,-7.06
2023-03-01T05:18:56.465Z,-7.06
2023-03-01T05:19:27.414Z,-7.06
2023-03-01T05:20:00.500Z,-7.06
2023-03-01T05:20:31.284Z,-7.06
2023-03-01T05:21:04.405Z,-7.06
2023-03-01T05:21:35.475Z,-7.17
2023-03-01T05:22:08.536Z,-7.17
2023-03-01T05:22:39.388Z,-7.17
2023-03-01T05:23:12.529Z,-7.17
2023-03-01T05:23:43.328Z,-7.17
2023-03-01T05:24:17.286Z,-7.17
2023-03-01T05:24:47.337Z,-7.17
2023-03-01T05:25:20.123Z,-7.17
2023-03-01T05:25:51.320Z,-7.17
2023-03-01T05:26:28.676Z,-7.17
2023-03-01T05:26:55.326Z,-7.17
2023-03-01T05:27:28.361Z,-7.17
2023-03-01T05:27:59.346Z,-7.17
2023-03-01T05:28:32.227Z,-7.17
2023-03-01T05:29:03.040Z,-7.17
2023-03-01T05:29:36.085Z,-7.17
2023-03-01T05:30:07.545Z,-7.17
2023-03-01T05:30:40.189Z,-7.17
2023-03-01T05:31:11.083Z,-7.17
2023-03-01T05:31:43.983Z,-7.17
2023-03-01T05:32:15.210Z,-7.17
2023-03-01T05:32:48.013Z,-7.29
2023-03-01T05:33:18.868Z,-7.29
2023-03-01T05:33:52.073Z,-7.29
2023-03-01T05:34:23.010Z,-7.29
2023-03-01T05:34:55.910Z,-7.17
2023-03-01T05:35:26.684Z,-7.17
2023-03-01T05:35:59.708Z,-7.17
2023-03-01T05:36:31.003Z,-7.17
2023-03-01T05:37:03.717Z,-7.29
2023-03-01T05:37:34.922Z,-7.29
2023-03-01T05:38:07.698Z,-7.29
2023-03-01T05:38:38.607Z,-7.17
2023-03-01T05:39:11.531Z,-7.17
2023-03-01T05:39:42.875Z,-7.17
2023-03-01T05:40:15.380Z,-7.17
2023-03-01T05:40:46.529Z,-7.17
2023-03-01T05:41:19.521Z,-7.17
2023-03-01T05:41:50.469Z,-7.17
2023-03-01T05:42:23.301Z,-7.17
2023-03-01T05:42:54.448Z,-7.17
2023-03-01T05:43:27.382Z,-7.17
2023-03-01T05:43:58.315Z,-7.17
2023-03-01T05:44:31.324Z,-7.17
2023-03-01T05:45:02.500Z,-7.17
2023-03-01T05:45:35.284Z,-7.29
2023-03-01T05:46:06.283Z,-7.29
2023-03-01T05:46:39.107Z,-7.29
2023-03-01T05:47:10.232Z,-7.29
2023-03-01T05:47:43.262Z,-7.29
2023-03-01T05:48:14.119Z,-7.29
2023-03-01T05:48:47.017Z,-7.29
2023-03-01T05:49:18.168Z,-7.29
2023-03-01T05:49:51.315Z,-7.29
2023-03-01T05:50:22.296Z,-7.29
2023-03-01T05:50:55.215Z,-7.29
2023-03-01T05:51:26.260Z,-7.29
2023-03-01T05:51:59.140Z,-7.29
2023-03-01T05:52:29.914Z,-7.29
2023-03-01T05:53:02.957Z,-7.29
2023-03-01T05:53:34.016Z,-7.29
2023-03-01T05:54:07.055Z,-7.29
2023-03-01T05:54:38.009Z,-7.29
2023-03-01T05:55:10.775Z,-7.29
2023-03-01T05:55:42.895Z,-7.29
2023-03-01T05:56:14.817Z,-7.29
2023-03-01T05:56:45.734Z,-7.29
2023-03-01T05:57:18.713Z,-7.29
2023-03-01T05:57:49.797Z,-7.29
2023-03-01T05:58:22.813Z,-7.29
2023-03-01T05:58:53.672Z,-7.29
2023-03-01T05:59:26.584Z,-7.29
2023-03-01T05:59:57.986Z,-7.29
2023-03-01T06:00:31.164Z,-7.29
2023-03-01T06:01:01.607Z,-7.39
2023-03-01T06:01:34.557Z,-7.39
2023-03-01T06:02:05.659Z,-7.39
2023-03-01T06:02:38.560Z,-7.39
2023-03-01T06:03:09.497Z,-7.39
2023-03-01T06:03:42.516Z,-7.39
2023-03-01T06:04:13.651Z,-7.39
2023-03-01T06:04:46.585Z,-7.39
2023-03-01T06:05:17.496Z,-7.39
2023-03-01T06:05:50.445Z,-7.39
2023-03-01T06:06:21.644Z,-7.39
2023-03-01T06:06:54.394Z,-7.39
2023-03-01T06:07:25.303Z,-7.39
2023-03-01T06:07:58.255Z,-7.39
2023-03-01T06:08:29.487Z,-7.39
2023-03-01T06:09:02.404Z,-7.39
2023-03-01T06:09:33.613Z,-7.39
2023-03-01T06:10:06.218Z,-7.39
2023-03-01T06:10:37.256Z,-7.39
2023-03-01T06:11:10.289Z,-7.39
2023-03-01T06:11:41.213Z,-7.39
2023-03-01T06:12:14.108Z,-7.39
2023-03-01T06:12:45.181Z,-7.39
2023-03-01T06:13:18.217Z,-7.39
2023-03-01T06:13:49.032Z,-7.39
2023-03-01T06:14:22.036Z,-7.29
2023-03-01T06:14:53.095Z,-7.29
2023-03-01T06:15:26.147Z,-7.29
2023-03-01T06:15:57.263Z,-7.29
2023-03-01T06:16:30.112Z,-7.29
2023-03-01T06:17:01.337Z,-7.29
2023-03-01T06:17:33.992Z,-7.29
2023-03-01T06:18:04.902Z,-7.29
2023-03-01T06:18:37.889Z,-7.29
2023-03-01T06:19:08.925Z,-7.29
2023-03-01T06:19:42.001Z,-7.29
2023-03-01T06:20:12.790Z,-7.29
2023-03-01T06:20:45.595Z,-7.29
2023-03-01T06:21:16.879Z,-7.39
2023-03-01T06:21:49.990Z,-7.39
2023-03-01T06:22:20.779Z,-7.39
2023-03-01T06:22:53.622Z,-7.39
2023-03-01T06:23:24.831Z,-7.39
2023-03-01T06:23:57.850Z,-7.39
2023-03-01T06:24:28.595Z,-7.29
2023-03-01T06:25:01.694Z,-7.29
2023-03-01T06:25:32.696Z,-7.29
2023-03-01T06:26:05.598Z,-7.29
2023-03-01T06:26:36.494Z,-7.29
2023-03-01T06:27:09.524Z,-7.29
2023-03-01T06:27:40.749Z,-7.29
2023-03-01T06:28:13.480Z,-7.29
2023-03-01T06:28:44.393Z,-7.29
2023-03-01T06:29:17.249Z,-7.29
2023-03-01T06:29:48.506Z,-7.29
2023-03-01T06:30:21.507Z,-7.29
2023-03-01T06:30:52.743Z,-7.29
2023-03-01T06:31:25.279Z,-7.29
2023-03-01T06:31:56.359Z,-7.29
2023-03-01T06:32:29.386Z,-7.29
2023-03-01T06:33:00.455Z,-7.29
2023-03-01T06:33:33.173Z,-7.29
2023-03-01T06:34:04.320Z,-7.29
2023-03-01T06:34:37.197Z,-7.29
2023-03-01T06:35:08.321Z,-7.29
2023-03-01T06:35:41.185Z,-7.29
2023-03-01T06:36:12.414Z,-7.29
2023-03-01T06:36:45.188Z,-7.17
2023-03-01T06:37:16.227Z,-7.17
2023-03-01T06:37:49.133Z,-7.17
2023-03-01T06:38:20.119Z,-7.17
2023-03-01T06:38:53.248Z,-7.17
2023-03-01T06:39:24.152Z,-7.17
2023-03-01T06:39:56.862Z,-7.17
2023-03-01T06:40:28.084Z,-7.17
2023-03-01T06:41:01.236Z,-7.06
2023-03-01T06:41:32.077Z,-7.06
2023-03-01T06:42:04.993Z,-7.06
2023-03-01T06:42:35.882Z,-7.06
2023-03-01T06:43:08.858Z,-7.06
2023-03-01T06:43:39.952Z,-7.01
2023-03-01T06:44:12.675Z,-7.01
2023-03-01T06:44:43.939Z,-7.01
2023-03-01T06:45:16.778Z,-7.01
2023-03-01T06:45:47.894Z,-7.01
2023-03-01T06:46:20.840Z,-7.01
2023-03-01T06:46:51.777Z,-7.01
2023-03-01T06:47:24.650Z,-7.01
2023-03-01T06:47:55.736Z,-7.01
2023-03-01T06:48:28.585Z,-7.01
2023-03-01T06:48:59.647Z,-7.01
2023-03-01T06:49:32.584Z,-6.90
2023-03-01T06:50:03.740Z,-6.90
2023-03-01T06:50:36.548Z,-6.90
2023-03-01T06:51:07.640Z,-6.90
2023-03-01T06:51:40.531Z,-6.90